Kananaskis, Canada
Current Conditions -  °F | °C
As of 9:00 AM on Wednesday 22 Oct 2014 (Local Time) from CYBW Reporting Station
Clear Clear  
Wind Chill: 32°   Ceiling: Unl
Heat Index: 32°   Visibility: 9mi
Dew Point: 25°   Wind: 3mph
Humidity: 75%   Direction: 220°SW
Pressure: 29.73"   Gusts: NA
Location:  50.93°N, 115.13°W
Report Text: CYBW 221500Z AUTO 22003KT 9SM CLR 00/M04 A2973 RMK SLP108
Loading
Personal Weather Stations






























Interactive Weather Map
Tropical Storm Tracking
New forecast layout! Learn more

10-Day Weather Forecast

Advertisements
Track Severe Weather on mobile